• Join FlightAware (Why Join?)
  • Login
  • US Flag 
11:00PM EDT


 

Airport Tracker/Info


-or-


 

Live Flight TrackerFlight Track Log ✈ RPA3228 ✈ 17-May-2013 ✈ KDCA - KBTV

Flight Track Log - Related Links

Times and Time Zones

All times are in EDT time to prevent confusion due to time zone crossing. See the RPA3228 flight status page for this flight to view local times or setup timezone preferences in your user account.

Time Position Orientation Groundspeed Altitude Reporting Facility
EDT Latitude Longitude Course Direction KTS MPH feet Rate Location/Type
10:35AM 38.9000 -77.0833 38° Northeast 192 221 2,300  Level Potomac TRACON
10:36AM 38.9500 -77.1333 322° Northwest 251 289 4,600 2,340 Climbing Potomac TRACON
10:37AM 38.9648 -76.6888 67° East  Level FlightAware Approximate
10:38AM 39.0121 -76.5757 57° Northeast  Level FlightAware Approximate
10:39AM 39.0560 -76.4599 63° Northeast  Level FlightAware Approximate
10:39AM 39.0444 -77.0322 40° Northeast 225 259 10,500  Level Washington Center
10:40AM 39.1039 -76.3465 61° Northeast  Level FlightAware Approximate
10:40AM 39.0606 -76.9014 81° East 309 356 12,700  Level Washington Center
10:41AM 39.1366 -76.2301 38° Northeast  Level FlightAware Approximate
10:41AM 39.0786 -76.7761 79° East 337 388 15,500  Level Washington Center
10:42AM 39.0942 -76.6428 81° East 356 410 17,900 2,220 Climbing Washington Center
10:43AM 39.1119 -76.5064 80° East 373 429 20,000 1,980 Climbing Washington Center
10:44AM 39.1317 -76.3650 80° East 386 444 22,000 1,440 Climbing Washington Center
10:45AM 39.1494 -76.2178 81° East 398 458 23,000 480 Climbing Washington Center
10:46AM 39.1731 -76.0547 79° East 414 476 23,000  Level Washington Center
10:47AM 39.1922 -75.9075 80° East 414 476 23,000 360 Level Washington Center
10:48AM 39.2592 -75.7925 53° Northeast 391 450 23,800 1,260 Climbing Washington Center
10:49AM 39.3406 -75.6881 45° Northeast 391 450 25,600 1,680 Climbing Washington Center
10:50AM 39.4239 -75.5808 45° Northeast 407 468 27,200 1,560 Climbing Washington Center
10:51AM 39.5092 -75.4733 44° Northeast 418 481 28,700 1,260 Climbing Washington Center
10:52AM 39.5944 -75.3625 45° Northeast 424 488 29,800 840 Climbing Washington Center
10:54AM 39.7244 -75.1867 46° Northeast 448 516 31,000 420 Climbing New York Center
10:55AM 39.8169 -75.0519 48° Northeast 455 524 31,000  Level New York Center
10:56AM 39.8983 -74.9325 48° Northeast 455 524 31,000  Level New York Center
10:57AM 39.9900 -74.8186 44° Northeast 449 517 31,000  Level New York Center
10:58AM 40.0828 -74.7208 39° Northeast 442 509 31,000  Level New York Center
10:59AM 40.1925 -74.6864 13° North 414 476 31,000  Level New York Center
11:00AM 40.3022 -74.6464 16° North 405 466 31,000  Level New York Center
11:02AM 40.5275 -74.5697 15° North 393 452 31,000  Level Boston Center
11:03AM 40.6281 -74.5375 14° North 404 465 31,000  Level Boston Center
11:04AM 40.7394 -74.5000 14° North 404 465 31,000  Level Boston Center
11:05AM 40.8589 -74.4597 14° North 399 459 31,000  Level Boston Center
11:06AM 40.9575 -74.4244 15° North 399 459 31,000  Level Boston Center
11:07AM 41.0517 -74.3944 14° North 393 452 31,000  Level Boston Center
11:08AM 41.2006 -74.3492 13° North 398 458 31,000  Level Boston Center
11:09AM 41.3139 -74.3056 16° North 392 451 31,000  Level Boston Center
11:10AM 41.4247 -74.2672 15° North 392 451 31,000  Level Boston Center
11:11AM 41.5297 -74.2342 13° North 410 472 31,000  Level Boston Center
11:12AM 41.6406 -74.1956 15° North 410 472 31,000  Level Boston Center
11:13AM 41.7539 -74.1542 15° North 410 472 31,000  Level Boston Center
11:14AM 41.8692 -74.1156 14° North 404 465 31,000  Level Boston Center
11:15AM 41.9800 -74.0794 14° North 404 465 31,000  Level Boston Center
11:16AM 42.0889 -74.0431 14° North 399 459 31,000  Level Boston Center
11:17AM 42.1853 -74.0064 16° North 399 459 31,000  Level Boston Center
11:18AM 42.2983 -73.9669 14° North 399 459 31,000  Level Boston Center
11:19AM 42.4072 -73.9275 15° North 399 459 31,000  Level Boston Center
11:20AM 42.4953 -73.8958 15° North 399 459 31,000  Level Boston Center
11:21AM 42.6356 -73.8456 15° North 393 452 31,000 -480 Level Boston Center
11:22AM 42.7361 -73.8111 14° North 398 458 30,100 -540 Descending Boston Center
11:23AM 42.8469 -73.7683 16° North 404 465 30,000 -60 Descending Boston Center
11:24AM 42.9578 -73.7281 15° North 404 465 30,000 -300 Level Boston Center
11:25AM 43.0689 -73.6850 16° North 404 465 29,400 -780 Descending Boston Center
11:26AM 43.1903 -73.6361 16° North 404 465 28,500 -1,320 Descending Boston Center
11:27AM 43.2989 -73.5983 14° North 404 465 26,800 -1,800 Descending Boston Center
11:28AM 43.4014 -73.5603 15° North 394 453 24,900 -1,800 Descending Boston Center
11:29AM 43.5019 -73.5219 15° North 374 430 23,200 -1,920 Descending Boston Center
11:30AM 43.5981 -73.4864 15° North 362 417 21,100 -2,340 Descending Boston Center
11:31AM 43.6900 -73.4536 14° North 357 411 18,600 -2,400 Descending Boston Center
11:32AM 43.7758 -73.4206 16° North 337 388 16,400 -2,400 Descending Boston Center
11:33AM 43.8636 -73.3875 15° North 317 365 13,900 -2,280 Descending Boston Center
11:34AM 43.9492 -73.3572 14° North 317 365 11,900 -1,980 Descending Boston Center
11:35AM 44.0225 -73.3264 17° North 297 342 10,000 -2,100 Descending Boston Center
11:36AM 44.0894 -73.2986 17° North 267 307 7,800 -2,220 Descending Boston Center
11:37AM 44.1522 -73.2503 29° Northeast 247 284 5,600 -1,440 Descending Boston Center
11:38AM 44.2006 -73.2075 32° Northeast 223 257 5,000 -960 Descending Boston Center
11:39AM 44.2464 -73.1675 32° Northeast 202 232 3,700 -660 Descending Boston Center
11:40AM 44.2842 -73.1331 33° Northeast 182 209 3,700  Level Boston Center
11:41AM 44.3242 -73.0989 31° Northeast 175 201 3,700 -420 Level Boston Center
11:42AM 44.3700 -73.0617 30° Northeast 163 188 2,800 -780 Descending Boston Center
11:43AM 44.4075 -73.0592 North 132 152 2,100 -720 Descending Boston Center
11:44AM 44.4344 -73.0942 317° Northwest 118 136 1,400 -780 Descending Boston Center
11:45AM 44.4592 -73.1322 312° West 125 144 600 -840 Descending Boston Center